Time;durP1;ratioP1;P1;durP2;ratioP2;P2;SDS_P1;SDS_P2;PMS_P1;PMS_P2;Temp;Humidity;BMP_temperature;BMP_pressure;BME280_temperature;BME280_humidity;BME280_pressure;Samples;Min_cycle;Max_cycle;Signal;HPM_P1;HPM_P2
2023/01/02 00:01:31;;;;;;;0.05;0.05;;;12.90;99.90;226.50;231333.00;;;;5044623;28;20226;-74
2023/01/02 00:03:59;;;;;;;0.05;0.05;;;12.90;99.90;226.50;231333.00;;;;5033646;28;20608;-74
2023/01/02 00:06:33;;;;;;;0.10;0.10;;;13.00;99.90;226.50;231333.00;;;;5021897;28;20203;-73
2023/01/02 00:09:02;;;;;;;0.10;0.10;;;13.00;99.90;226.50;231333.00;;;;5035187;28;20207;-73
2023/01/02 00:11:30;;;;;;;0.10;0.10;;;13.00;99.90;226.50;231333.00;;;;5041339;28;20218;-74
2023/01/02 00:13:58;;;;;;;0.10;0.10;;;13.00;99.90;226.50;231333.00;;;;5039123;28;20248;-74
2023/01/02 00:16:26;;;;;;;0.00;0.00;;;13.20;99.90;226.50;231333.00;;;;5019603;28;20233;-74
2023/01/02 00:18:54;;;;;;;0.00;0.00;;;13.20;99.90;226.50;231333.00;;;;5044172;28;20220;-74
2023/01/02 00:21:22;;;;;;;0.03;0.03;;;13.30;99.90;226.50;231333.00;;;;5021878;28;20246;-74
2023/01/02 00:23:51;;;;;;;0.05;0.05;;;13.30;99.90;226.50;231333.00;;;;5044966;28;20202;-73
2023/01/02 00:26:19;;;;;;;0.10;0.10;;;13.20;99.90;226.50;231333.00;;;;5034981;28;20195;-73
2023/01/02 00:28:47;;;;;;;0.00;0.00;;;13.30;99.90;226.50;231333.00;;;;5033836;28;20240;-74
2023/01/02 00:31:15;;;;;;;0.00;0.00;;;13.30;99.90;226.50;231333.00;;;;5024427;28;20562;-74
2023/01/02 00:33:43;;;;;;;0.10;0.10;;;13.30;99.90;226.50;231333.00;;;;5023894;28;20633;-74
2023/01/02 00:36:13;;;;;;;0.03;0.03;;;13.30;99.90;226.50;231333.00;;;;5038782;28;20214;-74
2023/01/02 00:38:43;;;;;;;0.00;0.00;;;13.40;99.90;226.50;231333.00;;;;5039143;28;20195;-74
2023/01/02 00:41:12;;;;;;;0.00;0.00;;;13.60;99.90;226.50;231333.00;;;;5042952;28;20223;-73
2023/01/02 00:43:42;;;;;;;0.10;0.10;;;13.60;99.90;226.50;231333.00;;;;5040068;28;20206;-74
2023/01/02 00:46:10;;;;;;;0.10;0.10;;;13.60;99.90;226.50;231333.00;;;;5029167;28;20214;-74
2023/01/02 00:48:39;;;;;;;0.00;0.00;;;13.70;99.90;226.50;231333.00;;;;5028830;28;20671;-74
2023/01/02 00:51:08;;;;;;;0.00;0.00;;;13.70;99.90;226.50;231333.00;;;;5036365;28;20232;-74
2023/01/02 00:53:36;;;;;;;0.03;0.03;;;13.60;99.90;226.50;231333.00;;;;5031494;28;20237;-74
2023/01/02 00:56:05;;;;;;;0.10;0.10;;;13.70;99.90;226.50;231333.00;;;;5039482;28;20221;-74
2023/01/02 00:58:35;;;;;;;0.05;0.05;;;13.70;99.90;226.50;231333.00;;;;5024557;28;20256;-74
2023/01/02 01:01:03;;;;;;;0.10;0.10;;;13.70;99.90;226.50;231333.00;;;;5027634;28;20221;-74
2023/01/02 01:03:32;;;;;;;0.00;0.00;;;13.70;99.90;226.50;231333.00;;;;5028835;28;20279;-74
2023/01/02 01:06:06;;;;;;;0.00;0.00;;;13.70;99.90;226.50;231333.00;;;;5038640;28;20245;-74
2023/01/02 01:08:35;;;;;;;0.00;0.00;;;13.70;99.90;226.50;231333.00;;;;5040575;28;20203;-75
2023/01/02 01:11:06;;;;;;;0.00;0.00;;;13.70;99.90;226.50;231333.00;;;;5034606;28;20277;-75
2023/01/02 01:13:37;;;;;;;0.05;0.05;;;13.70;99.90;226.50;231333.00;;;;5043600;28;20217;-75
2023/01/02 01:16:07;;;;;;;0.05;0.05;;;13.70;99.90;226.50;231333.00;;;;5026098;28;20198;-74
2023/01/02 01:18:36;;;;;;;0.00;0.00;;;13.70;99.90;226.50;231333.00;;;;5043903;28;20594;-74
2023/01/02 01:21:08;;;;;;;0.00;0.00;;;13.70;99.90;226.50;231333.00;;;;5034099;28;20215;-74
2023/01/02 01:23:38;;;;;;;0.03;0.03;;;13.80;99.90;226.50;231333.00;;;;5040407;28;20206;-74
2023/01/02 01:26:08;;;;;;;0.10;0.10;;;13.80;99.90;226.50;231333.00;;;;5040012;28;20662;-73
2023/01/02 01:28:40;;;;;;;0.10;0.10;;;13.80;99.90;226.50;231333.00;;;;5045632;28;20190;-73
2023/01/02 01:31:12;;;;;;;0.00;0.00;;;13.80;99.90;226.50;231333.00;;;;5040799;28;20227;-73
2023/01/02 01:33:43;;;;;;;0.10;0.10;;;13.80;99.90;226.50;231333.00;;;;5046063;28;20202;-73
2023/01/02 01:36:15;;;;;;;0.00;0.00;;;13.80;99.90;226.50;231333.00;;;;5039285;28;20598;-73
2023/01/02 01:38:43;;;;;;;0.00;0.00;;;13.80;99.90;226.50;231333.00;;;;5040848;28;20199;-74
2023/01/02 01:41:14;;;;;;;0.00;0.00;;;13.90;99.90;226.50;231333.00;;;;5037040;28;20614;-73
2023/01/02 01:43:48;;;;;;;0.00;0.00;;;13.90;99.90;226.50;231333.00;;;;5037078;28;20784;-74
2023/01/02 01:46:24;;;;;;;0.03;0.03;;;13.90;99.90;226.50;231333.00;;;;5033228;28;20199;-73
2023/01/02 01:49:02;;;;;;;0.00;0.00;;;13.90;99.90;226.50;231333.00;;;;5033620;28;20199;-74
2023/01/02 01:51:34;;;;;;;0.00;0.00;;;13.90;99.90;226.50;231333.00;;;;5048611;28;20218;-74
2023/01/02 01:54:08;;;;;;;0.10;0.10;;;13.90;99.90;226.50;231333.00;;;;5027909;28;20276;-74
2023/01/02 01:56:44;;;;;;;0.00;0.00;;;14.00;99.90;226.50;231333.00;;;;5035566;28;20199;-73
2023/01/02 01:59:14;;;;;;;0.00;0.00;;;14.00;99.90;226.50;231333.00;;;;5037268;28;20296;-74
2023/01/02 02:01:43;;;;;;;0.00;0.00;;;14.00;99.90;226.50;231333.00;;;;5035738;28;20216;-73
2023/01/02 02:04:13;;;;;;;0.10;0.10;;;14.00;99.90;226.50;231333.00;;;;5013272;28;20289;-74
2023/01/02 02:06:41;;;;;;;0.10;0.10;;;14.00;99.90;226.50;231333.00;;;;5046457;28;20202;-74
2023/01/02 02:09:16;;;;;;;0.10;0.10;;;14.00;99.90;226.50;231333.00;;;;5028413;28;20272;-74
2023/01/02 02:11:45;;;;;;;0.10;0.10;;;14.00;99.90;226.50;231333.00;;;;5045355;28;20643;-73
2023/01/02 02:14:15;;;;;;;0.00;0.00;;;14.00;99.90;226.50;231333.00;;;;5043983;28;20202;-74
2023/01/02 02:16:55;;;;;;;0.10;0.10;;;14.10;99.90;226.50;231333.00;;;;5041080;28;20263;-74
2023/01/02 02:19:58;;;;;;;0.10;0.10;;;14.10;99.90;226.50;231333.00;;;;5041876;28;20681;-74
2023/01/02 02:23:13;;;;;;;0.00;0.00;;;14.10;99.90;226.50;231333.00;;;;5039603;28;20257;-74
2023/01/02 02:26:18;;;;;;;0.00;0.00;;;14.10;99.90;226.50;231333.00;;;;5038866;28;20279;-74
2023/01/02 02:29:19;;;;;;;0.00;0.00;;;14.10;99.90;226.50;231333.00;;;;5044054;28;20734;-74
2023/01/02 02:31:57;;;;;;;0.10;0.10;;;14.10;99.90;226.50;231333.00;;;;5037122;28;20251;-74
2023/01/02 02:34:34;;;;;;;0.00;0.00;;;14.10;99.90;226.50;231333.00;;;;5046630;28;20214;-74
2023/01/02 02:37:14;;;;;;;0.00;0.00;;;14.10;99.90;226.50;231333.00;;;;5046743;28;20198;-74
2023/01/02 02:39:58;;;;;;;0.10;0.10;;;14.10;99.90;226.50;231333.00;;;;5043770;28;20241;-74
2023/01/02 02:42:43;;;;;;;0.00;0.00;;;14.10;99.90;226.50;231333.00;;;;5046395;28;20225;-74
2023/01/02 02:45:27;;;;;;;0.00;0.00;;;14.10;99.90;226.50;231333.00;;;;5041512;28;20210;-74
2023/01/02 02:48:05;;;;;;;0.00;0.00;;;14.00;99.90;226.50;231333.00;;;;5032635;28;20561;-73
2023/01/02 02:50:42;;;;;;;0.10;0.10;;;14.00;99.90;226.50;231333.00;;;;5050820;28;20209;-74
2023/01/02 02:53:18;;;;;;;0.10;0.10;;;14.00;99.90;226.50;231333.00;;;;5040506;28;20284;-73
2023/01/02 02:55:51;;;;;;;0.00;0.00;;;14.00;99.90;226.50;231333.00;;;;5046482;28;20353;-73
2023/01/02 02:58:22;;;;;;;0.00;0.00;;;14.00;99.90;226.50;231333.00;;;;5025870;28;20576;-73
2023/01/02 03:00:50;;;;;;;0.10;0.10;;;14.00;99.90;226.50;231333.00;;;;5041264;28;20223;-74
2023/01/02 03:03:23;;;;;;;0.10;0.10;;;14.00;99.90;226.50;231333.00;;;;5017426;28;20214;-73
2023/01/02 03:06:12;;;;;;;0.10;0.10;;;13.90;99.90;226.50;231333.00;;;;5039955;28;20281;-74
2023/01/02 03:08:46;;;;;;;0.10;0.10;;;14.00;99.90;226.50;231333.00;;;;5037700;28;20229;-74
2023/01/02 03:11:15;;;;;;;0.10;0.10;;;13.90;99.90;226.50;231333.00;;;;5070893;23;20917;-74
2023/01/02 03:13:58;;;;;;;0.08;0.08;;;13.90;99.90;226.50;231333.00;;;;5038731;28;20219;-74
2023/01/02 03:16:32;;;;;;;0.08;0.08;;;13.80;99.90;226.50;231333.00;;;;5042761;28;20194;-74
2023/01/02 03:19:08;;;;;;;0.00;0.00;;;13.70;99.90;226.50;231333.00;;;;5042182;28;20856;-74
2023/01/02 03:21:41;;;;;;;0.05;0.05;;;13.70;99.90;226.50;231333.00;;;;5043903;28;20339;-74
2023/01/02 03:24:14;;;;;;;0.10;0.10;;;13.50;99.90;226.50;231333.00;;;;5030369;28;20202;-74
2023/01/02 03:26:49;;;;;;;0.10;0.10;;;13.40;99.90;226.50;231333.00;;;;5046929;28;20202;-74
2023/01/02 03:29:21;;;;;;;0.00;0.00;;;13.30;99.90;226.50;231333.00;;;;5032470;28;20633;-74
2023/01/02 03:31:55;;;;;;;0.00;0.00;;;13.30;99.90;226.50;231333.00;;;;5029809;28;20219;-73
2023/01/02 03:34:30;;;;;;;0.10;0.10;;;13.20;99.90;226.50;231333.00;;;;5032706;28;20245;-74
2023/01/02 03:37:06;;;;;;;0.10;0.10;;;13.20;99.90;226.50;231333.00;;;;5042621;28;20668;-73
2023/01/02 03:39:41;;;;;;;0.00;0.00;;;13.20;99.90;226.50;231333.00;;;;5041312;28;20202;-73
2023/01/02 03:42:14;;;;;;;0.00;0.00;;;13.10;99.90;226.50;231333.00;;;;5030250;28;20259;-74
2023/01/02 03:44:50;;;;;;;0.00;0.00;;;13.10;99.90;226.50;231333.00;;;;5040934;28;20233;-74
2023/01/02 03:47:30;;;;;;;0.00;0.00;;;13.10;99.90;226.50;231333.00;;;;5037921;28;20194;-74
2023/01/02 03:50:06;;;;;;;0.00;0.00;;;13.10;99.90;226.50;231333.00;;;;5043056;28;20194;-74
2023/01/02 03:52:35;;;;;;;0.08;0.08;;;13.10;99.90;226.50;231333.00;;;;5044114;28;20272;-74
2023/01/02 03:55:04;;;;;;;0.05;0.05;;;13.10;99.90;226.50;231333.00;;;;5032352;28;20657;-74
2023/01/02 03:57:45;;;;;;;0.10;0.10;;;13.10;99.90;226.50;231333.00;;;;5043609;28;20202;-74
2023/01/02 04:00:20;;;;;;;0.00;0.00;;;13.10;99.90;226.50;231333.00;;;;5036177;28;20208;-74
2023/01/02 04:02:57;;;;;;;0.00;0.00;;;13.10;99.90;226.50;231333.00;;;;5035931;28;20211;-74
2023/01/02 04:05:38;;;;;;;0.00;0.00;;;13.10;99.90;226.50;231333.00;;;;5039333;28;20195;-74
2023/01/02 04:08:13;;;;;;;0.08;0.08;;;13.20;99.90;226.50;231333.00;;;;5039974;28;20233;-74
2023/01/02 04:10:45;;;;;;;0.00;0.00;;;13.10;99.90;226.50;231333.00;;;;5045035;28;20194;-74
2023/01/02 04:13:19;;;;;;;0.10;0.10;;;13.10;99.90;226.50;231333.00;;;;5036243;28;20226;-75
2023/01/02 04:15:52;;;;;;;0.10;0.10;;;13.10;99.90;226.50;231333.00;;;;5037709;28;20209;-74
2023/01/02 04:18:25;;;;;;;0.05;0.05;;;13.10;99.90;226.50;231333.00;;;;5035177;28;20203;-75
2023/01/02 04:20:59;;;;;;;0.00;0.00;;;13.10;99.90;226.50;231333.00;;;;5030700;28;20248;-75
2023/01/02 04:23:33;;;;;;;0.00;0.00;;;13.10;99.90;226.50;231333.00;;;;5041136;28;20668;-74
2023/01/02 04:26:08;;;;;;;0.10;0.10;;;13.10;99.90;226.50;231333.00;;;;5043068;28;20194;-75
2023/01/02 04:28:37;;;;;;;0.00;0.00;;;13.10;99.90;226.50;231333.00;;;;5042702;28;20201;-74
2023/01/02 04:31:13;;;;;;;0.00;0.00;;;13.10;99.90;226.50;231333.00;;;;5049191;28;20281;-74
2023/01/02 04:33:47;;;;;;;0.00;0.00;;;13.10;99.90;226.50;231333.00;;;;5033163;28;20241;-74
2023/01/02 04:36:17;;;;;;;0.10;0.10;;;13.10;99.90;226.50;231333.00;;;;5030900;28;20677;-75
2023/01/02 04:38:46;;;;;;;0.10;0.10;;;13.10;99.90;226.50;231333.00;;;;5040961;28;20202;-74
2023/01/02 04:41:25;;;;;;;0.10;0.10;;;13.10;99.90;226.50;231333.00;;;;5031697;28;20731;-74
2023/01/02 04:43:54;;;;;;;0.00;0.00;;;13.10;99.90;226.50;231333.00;;;;5040096;28;20194;-74
2023/01/02 04:46:22;;;;;;;0.10;0.10;;;13.00;99.90;226.50;231333.00;;;;5030033;28;20218;-74
2023/01/02 04:48:51;;;;;;;0.00;0.00;;;13.00;99.90;226.50;231333.00;;;;5042816;28;20202;-74
2023/01/02 04:51:20;;;;;;;0.00;0.00;;;13.00;99.90;226.50;231333.00;;;;5034304;28;20709;-74
2023/01/02 04:53:49;;;;;;;0.00;0.00;;;13.00;99.90;226.50;231333.00;;;;5040393;28;20218;-74
2023/01/02 04:56:18;;;;;;;0.03;0.03;;;13.00;99.90;226.50;231333.00;;;;5042152;28;20260;-74
2023/01/02 04:58:47;;;;;;;0.00;0.00;;;13.10;99.90;226.50;231333.00;;;;5035139;28;20681;-73
2023/01/02 05:01:18;;;;;;;0.00;0.00;;;13.10;99.90;226.50;231333.00;;;;5031758;28;20706;-73
2023/01/02 05:03:50;;;;;;;0.10;0.10;;;13.00;99.90;226.50;231333.00;;;;5020790;28;20661;-73
2023/01/02 05:06:20;;;;;;;0.00;0.00;;;13.00;99.90;226.50;231333.00;;;;5023293;28;20731;-74
2023/01/02 05:08:48;;;;;;;0.10;0.10;;;13.00;99.90;226.50;231333.00;;;;5013776;28;20206;-73
2023/01/02 05:11:20;;;;;;;0.10;0.10;;;13.00;99.90;226.50;231333.00;;;;5017915;28;20787;-74
2023/01/02 05:13:47;;;;;;;0.00;0.00;;;13.10;99.90;226.50;231333.00;;;;5018619;28;20212;-73
2023/01/02 05:16:15;;;;;;;0.00;0.00;;;13.00;99.90;226.50;231333.00;;;;5022045;28;20196;-73
2023/01/02 05:18:43;;;;;;;0.00;0.00;;;13.00;99.90;226.50;231333.00;;;;5024886;28;20203;-73
2023/01/02 05:23:59;;;;;;;0.00;0.00;;;13.00;99.90;226.50;231333.00;;;;5038461;28;20654;-73
2023/01/02 05:26:29;;;;;;;0.00;0.00;;;13.00;99.90;226.50;231333.00;;;;5042508;28;20202;-73
2023/01/02 05:28:57;;;;;;;0.00;0.00;;;12.90;99.90;226.50;231333.00;;;;5040124;28;20202;-75
2023/01/02 05:31:26;;;;;;;0.00;0.00;;;12.90;99.90;226.50;231333.00;;;;5039141;28;20227;-75
2023/01/02 05:33:57;;;;;;;0.00;0.00;;;12.80;99.90;226.50;231333.00;;;;5044397;28;20218;-75
2023/01/02 05:36:27;;;;;;;0.00;0.00;;;12.70;99.90;226.50;231333.00;;;;5040206;28;20669;-73
2023/01/02 05:38:56;;;;;;;0.00;0.00;;;12.70;99.90;226.50;231333.00;;;;5043375;28;20673;-73
2023/01/02 05:41:24;;;;;;;0.10;0.10;;;12.60;99.90;226.50;231333.00;;;;5041691;28;20249;-74
2023/01/02 05:43:54;;;;;;;0.00;0.00;;;12.60;99.90;226.50;231333.00;;;;5042336;28;20206;-72
2023/01/02 05:46:22;;;;;;;0.10;0.10;;;12.50;99.90;226.50;231333.00;;;;5029470;28;20203;-73
2023/01/02 05:48:50;;;;;;;0.00;0.00;;;12.50;99.90;226.50;231333.00;;;;5045552;28;20234;-73
2023/01/02 05:51:19;;;;;;;0.00;0.00;;;12.50;99.90;226.50;231333.00;;;;5037238;28;20607;-73
2023/01/02 05:53:47;;;;;;;0.00;0.00;;;12.40;99.90;226.50;231333.00;;;;5034512;28;20195;-74
2023/01/02 05:56:20;;;;;;;0.00;0.00;;;12.40;99.90;226.50;231333.00;;;;5036641;28;20199;-73
2023/01/02 05:58:50;;;;;;;0.00;0.00;;;12.40;99.90;226.50;231333.00;;;;5041735;28;20195;-72
2023/01/02 06:01:20;;;;;;;0.00;0.00;;;12.40;99.90;226.50;231333.00;;;;5043306;28;20218;-74
2023/01/02 06:03:50;;;;;;;0.00;0.00;;;12.50;99.90;226.50;231333.00;;;;5033634;28;20694;-72
2023/01/02 06:06:23;;;;;;;0.00;0.00;;;12.40;99.90;226.50;231333.00;;;;5046679;28;20202;-72
2023/01/02 06:08:51;;;;;;;0.10;0.10;;;12.40;99.90;226.50;231333.00;;;;5043956;28;20191;-72
2023/01/02 06:11:21;;;;;;;0.00;0.00;;;12.40;99.90;226.50;231333.00;;;;5038706;28;20730;-73
2023/01/02 06:13:49;;;;;;;0.00;0.00;;;12.40;99.90;226.50;231333.00;;;;5042293;28;20198;-72
2023/01/02 06:16:17;;;;;;;0.00;0.00;;;12.40;99.90;226.50;231333.00;;;;5035278;28;20210;-72
2023/01/02 06:18:45;;;;;;;0.00;0.00;;;12.40;99.90;226.50;231333.00;;;;5044113;28;20224;-72
2023/01/02 06:21:17;;;;;;;0.00;0.00;;;12.40;99.90;226.50;231333.00;;;;5039427;28;20218;-72
2023/01/02 06:23:46;;;;;;;0.08;0.08;;;12.40;99.90;226.50;231333.00;;;;5035459;28;20202;-72
2023/01/02 06:26:17;;;;;;;0.00;0.00;;;12.30;99.90;226.50;231333.00;;;;5045270;28;20661;-73
2023/01/02 06:28:52;;;;;;;0.00;0.00;;;12.20;99.90;226.50;231333.00;;;;5043834;28;20220;-73
2023/01/02 06:31:22;;;;;;;0.10;0.10;;;12.20;99.90;226.50;231333.00;;;;5035050;28;20222;-75
2023/01/02 06:33:54;;;;;;;0.00;0.00;;;12.20;99.90;226.50;231333.00;;;;5046248;28;20767;-74
2023/01/02 06:36:22;;;;;;;0.00;0.00;;;12.20;99.90;226.50;231333.00;;;;5042530;28;20734;-74
2023/01/02 06:38:50;;;;;;;0.10;0.10;;;12.20;99.90;226.50;231333.00;;;;5042839;28;20202;-73
2023/01/02 06:41:18;;;;;;;0.00;0.00;;;12.20;99.90;226.50;231333.00;;;;5041756;28;20535;-74
2023/01/02 06:43:51;;;;;;;0.10;0.10;;;12.30;99.90;226.50;231333.00;;;;5047833;28;20190;-73
2023/01/02 06:46:21;;;;;;;0.10;0.10;;;12.20;99.90;226.50;231333.00;;;;5042514;28;20230;-73
2023/01/02 06:48:50;;;;;;;0.00;0.00;;;12.20;99.90;226.50;231333.00;;;;5049385;28;20302;-73
2023/01/02 06:51:21;;;;;;;0.10;0.10;;;12.20;99.90;226.50;231333.00;;;;5041341;28;20257;-73
2023/01/02 06:53:50;;;;;;;0.10;0.10;;;12.10;99.90;226.50;231333.00;;;;5049259;28;20256;-73
2023/01/02 06:56:20;;;;;;;0.10;0.10;;;12.10;99.90;226.50;231333.00;;;;5041432;28;20230;-72
2023/01/02 06:58:49;;;;;;;0.00;0.00;;;12.10;99.90;226.50;231333.00;;;;5042714;28;20245;-73
2023/01/02 07:01:20;;;;;;;0.10;0.10;;;12.10;99.90;226.50;231333.00;;;;5045565;28;20629;-73
2023/01/02 07:03:49;;;;;;;0.10;0.10;;;12.10;99.90;226.50;231333.00;;;;5042958;28;20609;-73
2023/01/02 07:06:19;;;;;;;0.10;0.10;;;12.00;99.90;226.50;231333.00;;;;5046344;28;20693;-73
2023/01/02 07:08:48;;;;;;;0.10;0.10;;;12.10;99.90;226.50;231333.00;;;;5042362;28;20658;-73
2023/01/02 07:11:19;;;;;;;0.10;0.10;;;12.00;99.90;226.50;231333.00;;;;5038413;28;20222;-73
2023/01/02 07:13:52;;;;;;;0.10;0.10;;;12.00;99.90;226.50;231333.00;;;;5034951;28;20203;-73
2023/01/02 07:16:23;;;;;;;0.10;0.10;;;11.90;99.90;226.50;231333.00;;;;5042344;28;20470;-72
2023/01/02 07:18:52;;;;;;;0.00;0.00;;;11.90;99.90;226.50;231333.00;;;;5038031;28;20250;-73
2023/01/02 07:21:21;;;;;;;0.00;0.00;;;11.90;99.90;226.50;231333.00;;;;5041886;28;20234;-73
2023/01/02 07:23:49;;;;;;;0.10;0.10;;;11.90;99.90;226.50;231333.00;;;;5044546;28;20209;-73
2023/01/02 07:26:17;;;;;;;0.00;0.00;;;11.90;99.90;226.50;231333.00;;;;5047215;28;20264;-73
2023/01/02 07:28:46;;;;;;;0.10;0.10;;;11.90;99.90;226.50;231333.00;;;;5044592;28;20217;-73
2023/01/02 07:31:18;;;;;;;0.10;0.10;;;12.00;99.90;226.50;231333.00;;;;5030441;28;20246;-73
2023/01/02 07:33:46;;;;;;;0.00;0.00;;;12.00;99.90;226.50;231333.00;;;;5042876;28;20596;-73
2023/01/02 07:36:18;;;;;;;0.10;0.10;;;11.90;99.90;226.50;231333.00;;;;5041911;28;20219;-73
2023/01/02 07:38:51;;;;;;;0.10;0.10;;;11.80;99.90;226.50;231333.00;;;;5043228;28;20199;-73
2023/01/02 07:41:22;;;;;;;0.10;0.10;;;11.80;99.90;226.50;231333.00;;;;5029579;28;20219;-74
2023/01/02 07:43:51;;;;;;;0.10;0.10;;;11.80;99.90;226.50;231333.00;;;;5034399;28;20195;-73
2023/01/02 07:46:20;;;;;;;0.10;0.10;;;11.70;99.90;226.50;231333.00;;;;5037759;28;20609;-74
2023/01/02 07:48:49;;;;;;;0.10;0.10;;;11.70;99.90;226.50;231333.00;;;;5041014;28;20199;-73
2023/01/02 07:51:18;;;;;;;0.10;0.10;;;11.70;99.90;226.50;231333.00;;;;5034404;28;20225;-73
2023/01/02 07:53:55;;;;;;;0.10;0.10;;;11.70;99.90;226.50;231333.00;;;;5047687;28;20736;-73
2023/01/02 07:56:24;;;;;;;0.10;0.10;;;11.80;99.90;226.50;231333.00;;;;5034985;28;20219;-73
2023/01/02 07:58:52;;;;;;;0.10;0.10;;;11.80;99.90;226.50;231333.00;;;;5040736;28;20237;-73
2023/01/02 08:01:21;;;;;;;0.10;0.10;;;11.80;99.90;226.50;231333.00;;;;5041746;28;20321;-73
2023/01/02 08:03:50;;;;;;;0.10;0.10;;;11.70;99.90;226.50;231333.00;;;;5040395;28;20260;-73
2023/01/02 08:06:19;;;;;;;0.10;0.10;;;11.70;99.90;226.50;231333.00;;;;5037241;28;20288;-73
2023/01/02 08:08:47;;;;;;;0.10;0.10;;;11.70;99.90;226.50;231333.00;;;;5042774;28;20199;-73
2023/01/02 08:11:17;;;;;;;0.10;0.10;;;11.70;99.90;226.50;231333.00;;;;5046462;28;20215;-73
2023/01/02 08:13:45;;;;;;;0.10;0.10;;;11.70;99.90;226.50;231333.00;;;;5038945;28;20198;-73
2023/01/02 08:16:16;;;;;;;0.10;0.10;;;11.70;99.90;226.50;231333.00;;;;5037882;28;20225;-73
2023/01/02 08:18:46;;;;;;;0.05;0.05;;;11.70;99.90;226.50;231333.00;;;;5032330;28;20198;-73
2023/01/02 08:21:15;;;;;;;0.10;0.10;;;11.70;99.90;226.50;231333.00;;;;5039030;28;20219;-73
2023/01/02 08:23:43;;;;;;;0.10;0.10;;;11.70;99.90;226.50;231333.00;;;;5043068;28;20206;-74
2023/01/02 08:26:11;;;;;;;0.00;0.00;;;11.70;99.90;226.50;231333.00;;;;5038164;28;20633;-73
2023/01/02 08:28:41;;;;;;;0.10;0.10;;;11.70;99.90;226.50;231333.00;;;;5039715;28;20248;-73
2023/01/02 08:31:12;;;;;;;0.00;0.00;;;11.70;99.90;226.50;231333.00;;;;5043102;28;20320;-75
2023/01/02 08:33:40;;;;;;;0.10;0.10;;;11.80;99.90;226.50;231333.00;;;;5042215;28;20687;-75
2023/01/02 08:36:10;;;;;;;0.10;0.10;;;11.80;99.90;226.50;231333.00;;;;5043869;28;20256;-75
2023/01/02 08:38:38;;;;;;;0.10;0.10;;;11.80;99.90;226.50;231333.00;;;;5042475;28;20202;-75
2023/01/02 08:41:07;;;;;;;0.10;0.10;;;11.90;99.90;226.50;231333.00;;;;5039464;28;20253;-75
2023/01/02 08:43:36;;;;;;;0.10;0.10;;;11.90;99.90;226.50;231333.00;;;;5039012;28;20202;-74
2023/01/02 08:46:06;;;;;;;0.10;0.10;;;11.90;99.90;226.50;231333.00;;;;5035611;28;20207;-75
2023/01/02 08:48:35;;;;;;;0.10;0.10;;;12.00;99.90;226.50;231333.00;;;;5046231;28;20235;-75
2023/01/02 08:51:04;;;;;;;0.10;0.10;;;12.00;99.90;226.50;231333.00;;;;5034544;28;20534;-74
2023/01/02 08:53:34;;;;;;;0.10;0.10;;;12.10;99.90;226.50;231333.00;;;;5030697;28;20191;-75
2023/01/02 08:56:18;;;;;;;0.10;0.10;;;12.00;99.90;226.50;231333.00;;;;5033611;28;20284;-75
2023/01/02 08:58:51;;;;;;;0.00;0.00;;;12.00;99.90;226.50;231333.00;;;;5040452;28;20352;-75
2023/01/02 09:01:20;;;;;;;0.10;0.10;;;12.00;99.90;226.50;231333.00;;;;5042815;28;20223;-75
2023/01/02 09:03:49;;;;;;;0.03;0.03;;;11.90;99.90;226.50;231333.00;;;;5040344;28;20203;-74
2023/01/02 09:06:17;;;;;;;0.00;0.00;;;12.00;99.90;226.50;231333.00;;;;5042823;28;20198;-75
2023/01/02 09:08:52;;;;;;;0.10;0.10;;;12.00;99.90;226.50;231333.00;;;;5043127;28;20298;-75
2023/01/02 09:11:24;;;;;;;0.10;0.10;;;12.00;99.90;226.50;231333.00;;;;5049116;28;20261;-74
2023/01/02 09:13:52;;;;;;;0.10;0.10;;;12.00;99.90;226.50;231333.00;;;;5045595;28;20241;-73
2023/01/02 09:16:21;;;;;;;0.00;0.00;;;12.10;99.90;226.50;231333.00;;;;5046617;28;20233;-74
2023/01/02 09:18:50;;;;;;;0.08;0.08;;;12.10;99.90;226.50;231333.00;;;;5046462;28;20603;-73
2023/01/02 09:21:18;;;;;;;0.10;0.10;;;12.20;99.90;226.50;231333.00;;;;5047023;28;20735;-73
2023/01/02 09:23:47;;;;;;;0.10;0.10;;;12.20;99.90;226.50;231333.00;;;;5045677;28;20202;-73
2023/01/02 09:26:16;;;;;;;0.10;0.10;;;12.10;99.90;226.50;231333.00;;;;5046480;28;20210;-74
2023/01/02 09:28:45;;;;;;;0.00;0.00;;;12.10;99.90;226.50;231333.00;;;;5041313;28;20256;-74
2023/01/02 09:31:15;;;;;;;0.10;0.10;;;12.20;99.90;226.50;231333.00;;;;5047417;28;20701;-74
2023/01/02 09:33:46;;;;;;;0.08;0.08;;;12.30;99.90;226.50;231333.00;;;;5045038;28;20209;-73
2023/01/02 09:36:17;;;;;;;0.00;0.00;;;12.30;99.90;226.50;231333.00;;;;5042668;28;20617;-74
2023/01/02 09:38:51;;;;;;;0.10;0.10;;;12.30;99.90;226.50;231333.00;;;;5048662;28;20202;-74
2023/01/02 09:41:34;;;;;;;0.10;0.10;;;12.40;99.90;226.50;231333.00;;;;5042737;28;20265;-74
2023/01/02 09:44:10;;;;;;;0.10;0.10;;;12.40;99.90;226.50;231333.00;;;;5042386;28;20191;-74
2023/01/02 09:46:48;;;;;;;0.10;0.10;;;12.40;99.90;226.50;231333.00;;;;5043546;28;20206;-73
2023/01/02 09:49:21;;;;;;;0.00;0.00;;;12.40;99.90;226.50;231333.00;;;;5048146;28;20214;-74
2023/01/02 09:51:50;;;;;;;0.10;0.10;;;12.40;99.90;226.50;231333.00;;;;5044075;28;20225;-74
2023/01/02 09:54:26;;;;;;;0.10;0.10;;;12.40;99.90;226.50;231333.00;;;;5048154;28;20226;-73
2023/01/02 09:57:29;;;;;;;0.00;0.00;;;12.50;99.90;226.50;231333.00;;;;5043199;28;20230;-74
2023/01/02 10:00:05;;;;;;;0.00;0.00;;;12.50;99.90;226.50;231333.00;;;;5044010;28;20209;-73
2023/01/02 10:02:56;;;;;;;0.08;0.08;;;12.40;99.90;226.50;231333.00;;;;5045478;28;20214;-74
2023/01/02 10:06:11;;;;;;;0.00;0.00;;;12.50;99.90;226.50;231333.00;;;;5042941;28;20211;-74
2023/01/02 10:08:59;;;;;;;0.10;0.10;;;12.50;99.90;226.50;231333.00;;;;5033557;28;20257;-73
2023/01/02 10:11:42;;;;;;;0.10;0.10;;;12.50;99.90;226.50;231333.00;;;;5046591;28;20251;-74
2023/01/02 10:14:25;;;;;;;0.10;0.10;;;12.60;99.90;226.50;231333.00;;;;5045476;28;20850;-73
2023/01/02 10:17:06;;;;;;;0.00;0.00;;;12.70;99.90;226.50;231333.00;;;;5036680;28;20215;-73
2023/01/02 10:19:44;;;;;;;0.10;0.10;;;12.70;99.90;226.50;231333.00;;;;5049507;28;20256;-74
2023/01/02 10:22:20;;;;;;;0.00;0.00;;;12.80;99.90;226.50;231333.00;;;;5037715;28;20215;-74
2023/01/02 10:24:59;;;;;;;0.00;0.00;;;12.80;99.90;226.50;231333.00;;;;5043418;28;20202;-73
2023/01/02 10:27:35;;;;;;;0.00;0.00;;;12.90;99.90;226.50;231333.00;;;;5044934;28;20191;-74
2023/01/02 10:30:17;;;;;;;0.10;0.10;;;12.90;99.90;226.50;231333.00;;;;5030609;28;20738;-74
2023/01/02 10:32:53;;;;;;;0.10;0.10;;;13.00;99.90;226.50;231333.00;;;;5043783;28;20272;-73
2023/01/02 10:35:40;;;;;;;0.10;0.10;;;13.10;99.90;226.50;231333.00;;;;5045014;28;20248;-72
2023/01/02 10:38:12;;;;;;;0.00;0.00;;;13.10;99.90;226.50;231333.00;;;;5036220;28;20226;-72
2023/01/02 10:40:45;;;;;;;0.00;0.00;;;13.20;99.90;226.50;231333.00;;;;5044796;28;20241;-71
2023/01/02 10:43:14;;;;;;;0.03;0.03;;;13.20;99.90;226.50;231333.00;;;;5039785;28;20230;-72
2023/01/02 10:45:44;;;;;;;0.00;0.00;;;13.30;99.90;226.50;231333.00;;;;5045224;28;20201;-72
2023/01/02 10:48:13;;;;;;;0.00;0.00;;;13.40;99.90;226.50;231333.00;;;;5038258;28;20594;-72
2023/01/02 10:50:47;;;;;;;0.00;0.00;;;13.40;99.90;226.50;231333.00;;;;5038246;28;20253;-72
2023/01/02 10:53:32;;;;;;;0.00;0.00;;;13.50;99.90;226.50;231333.00;;;;5047026;28;20245;-72
2023/01/02 10:56:03;;;;;;;0.00;0.00;;;13.60;99.90;226.50;231333.00;;;;5041814;28;20233;-74
2023/01/02 10:58:34;;;;;;;0.10;0.10;;;13.80;99.90;226.50;231333.00;;;;5036722;28;20775;-72
2023/01/02 11:01:13;;;;;;;0.00;0.00;;;13.80;99.90;226.50;231333.00;;;;5047524;28;20273;-72
2023/01/02 11:03:41;;;;;;;0.00;0.00;;;14.00;99.90;226.50;231333.00;;;;5038164;28;20222;-72
2023/01/02 11:06:20;;;;;;;0.00;0.00;;;14.10;99.90;226.50;231333.00;;;;5047588;28;20243;-72